CDT,Max TemperatureF,Mean TemperatureF,Min TemperatureF,Max Dew PointF,MeanDew PointF,Min DewpointF,Max Humidity, Mean Humidity, Min Humidity, Max Sea Level PressureIn, Mean Sea Level PressureIn, Min Sea Level PressureIn, Max VisibilityMiles, Mean VisibilityMiles, Min VisibilityMiles, Max Wind SpeedMPH, Mean Wind SpeedMPH, Max Gust SpeedMPH,PrecipitationIn, CloudCover, Events, WindDirDegrees
2013-4-1,33,24,16,16,12,10,77,56,41,30.22,30.14,30.00,10,10,10,21,12,26,0.00,1,,291
2013-4-2,38,26,15,16,12,9,79,53,30,30.37,30.31,30.27,10,10,10,18,9,25,0.00,1,,288
2013-4-3,45,30,14,18,13,7,93,51,23,30.49,30.37,30.23,10,10,10,12,4,,0.00,0,,203
2013-4-4,53,40,28,36,25,17,86,52,40,30.20,30.07,29.99,10,10,10,18,12,24,0.00,2,Rain,258
2013-4-5,47,34,23,32,24,16,95,68,32,30.27,30.16,30.09,10,10,10,15,6,,0.03,3,Rain,107
2013-4-6,57,44,31,50,40,19,100,77,47,30.07,29.64,29.50,10,10,7,20,13,30,0.02,7,Rain,202
2013-4-7,49,42,35,35,33,32,90,76,56,29.97,29.87,29.67,10,10,10,17,11,,0.00,6,,302
2013-4-8,49,43,36,41,35,32,94,80,66,30.03,29.84,29.71,10,10,10,12,8,,0.00,7,Rain,44
2013-4-9,40,37,33,39,35,30,100,93,81,30.08,30.01,29.94,10,9,3,17,6,26,0.00,8,Rain-Hail-Thunderstorm,55
2013-4-10,35,32,30,34,31,27,100,93,70,30.14,30.05,29.95,10,8,3,23,8,30,0.51,8,Rain-Thunderstorm,62
2013-4-11,35,34,31,34,32,26,100,94,73,29.91,29.72,29.64,10,5,2,34,16,43,0.05,8,Rain-Snow,76
2013-4-12,35,32,30,34,31,30,100,97,87,29.72,29.61,29.58,10,5,2,13,5,,0.14,8,Snow,7
2013-4-13,37,34,29,28,26,25,88,75,64,30.01,29.92,29.84,10,10,10,17,11,23,0.00,8,Snow,269
2013-4-14,39,32,25,38,32,24,100,91,80,30.01,29.80,29.62,10,8,2,21,8,28,0.39,7,Rain-Snow,91
2013-4-15,51,42,32,43,35,27,100,92,44,29.99,29.70,29.61,10,4,0,22,4,36,0.19,5,Fog-Rain,233
2013-4-16,51,40,27,28,27,25,94,67,38,30.34,30.17,29.99,10,10,10,13,7,17,0.00,4,,296
2013-4-17,40,33,25,37,33,25,100,89,70,30.34,30.13,29.86,10,9,5,23,9,36,0.00,7,Rain-Thunderstorm,76
2013-4-18,41,38,35,41,38,34,100,98,93,29.85,29.57,29.30,10,6,1,17,9,24,0.03,8,Rain-Thunderstorm,34
2013-4-19,37,32,26,34,28,20,100,84,56,29.95,29.46,29.31,10,8,2,25,16,34,0.01,6,Rain-Snow,272
2013-4-20,45,31,18,21,14,6,93,55,22,30.38,30.21,29.99,10,10,10,15,6,18,0.00,1,,305
2013-4-21,50,39,28,38,30,18,100,77,54,30.47,30.35,30.19,10,8,1,18,7,24,0.15,5,Rain-Snow,131
2013-4-22,50,46,43,49,44,38,100,95,66,30.19,30.04,29.98,10,4,0,13,5,21,0.02,3,Fog-Rain,208
2013-4-23,50,40,27,48,35,24,100,86,62,30.06,29.98,29.90,10,10,10,22,11,29,0.02,7,Rain-Snow,298
2013-4-24,52,37,23,36,26,19,96,65,34,30.07,30.00,29.95,10,10,7,23,8,32,0.01,4,Rain,249
2013-4-25,49,39,29,36,32,25,93,79,43,30.26,30.08,29.96,10,10,8,17,11,24,0.01,5,Rain,268
2013-4-26,72,51,31,45,35,24,83,48,31,30.23,30.15,30.07,10,10,10,23,9,30,0.00,2,Rain,183
2013-4-27,71,58,38,47,45,37,95,54,41,30.18,30.07,30.01,10,5,2,15,9,22,0.00,0,,183
2013-4-28,73,54,34,46,39,34,100,84,31,30.00,29.92,29.76,10,4,0,10,2,20,0.00,1,Fog,151
2013-4-29,71,62,55,55,51,43,94,66,53,29.81,29.78,29.70,10,10,10,13,7,,0.00,6,Rain,210
2013-4-30,84,73,60,59,54,45,82,50,35,29.88,29.68,29.60,10,10,10,24,14,39,0.00,5,,238